createdAt,value
2023-07-03T00:00:41.116Z,19.48
2023-07-03T00:03:09.208Z,24.25
2023-07-03T00:05:37.268Z,20.13
2023-07-03T00:08:05.128Z,16.80
2023-07-03T00:10:32.953Z,23.00
2023-07-03T00:13:00.746Z,25.88
2023-07-03T00:15:28.560Z,15.07
2023-07-03T00:17:56.158Z,24.10
2023-07-03T00:20:23.722Z,19.98
2023-07-03T00:22:52.638Z,15.80
2023-07-03T00:25:20.239Z,13.52
2023-07-03T00:27:48.628Z,19.42
2023-07-03T00:30:19.275Z,15.97
2023-07-03T00:32:47.120Z,18.35
2023-07-03T00:35:16.319Z,19.60
2023-07-03T00:37:43.921Z,21.52
2023-07-03T00:40:13.552Z,18.27
2023-07-03T00:42:41.015Z,24.83
2023-07-03T00:45:10.629Z,18.30
2023-07-03T00:47:39.370Z,17.33
2023-07-03T00:50:07.379Z,19.10
2023-07-03T00:52:35.558Z,23.65
2023-07-03T00:55:03.432Z,22.27
2023-07-03T00:57:31.301Z,28.17
2023-07-03T01:00:00.281Z,25.33
2023-07-03T01:02:27.805Z,17.98
2023-07-03T01:04:58.453Z,16.63
2023-07-03T01:07:30.556Z,22.37
2023-07-03T01:10:09.745Z,20.77
2023-07-03T01:12:41.764Z,28.38
2023-07-03T01:15:18.938Z,23.63
2023-07-03T01:17:48.996Z,20.80
2023-07-03T01:20:20.352Z,26.87
2023-07-03T01:23:08.745Z,17.45
2023-07-03T01:25:40.579Z,23.50
2023-07-03T01:28:11.832Z,20.98
2023-07-03T01:30:42.766Z,35.08
2023-07-03T01:33:19.222Z,19.97
2023-07-03T01:35:48.560Z,20.40
2023-07-03T01:38:19.078Z,21.50
2023-07-03T01:40:47.429Z,23.30
2023-07-03T01:43:15.826Z,17.33
2023-07-03T01:45:45.365Z,12.57
2023-07-03T01:48:13.696Z,16.27
2023-07-03T01:50:42.781Z,15.27
2023-07-03T01:53:24.314Z,11.05
2023-07-03T01:56:11.485Z,16.95
2023-07-03T01:58:49.080Z,12.30
2023-07-03T02:01:38.981Z,9.27
2023-07-03T02:04:13.396Z,11.23
2023-07-03T02:06:45.062Z,8.85
2023-07-03T02:09:14.255Z,4.85
2023-07-03T02:11:48.796Z,8.00
2023-07-03T02:14:16.662Z,5.75
2023-07-03T02:16:48.202Z,9.48
2023-07-03T02:19:18.336Z,6.03
2023-07-03T02:21:46.319Z,3.88
2023-07-03T02:24:14.544Z,6.63
2023-07-03T02:26:43.409Z,6.78
2023-07-03T02:29:11.249Z,6.60
2023-07-03T02:31:39.436Z,8.77
2023-07-03T02:34:07.180Z,3.08
2023-07-03T02:36:38.389Z,6.93
2023-07-03T02:39:06.918Z,7.35
2023-07-03T02:41:34.911Z,8.23
2023-07-03T02:44:02.825Z,5.43
2023-07-03T02:46:32.954Z,4.53
2023-07-03T02:49:00.468Z,4.73
2023-07-03T02:51:28.584Z,5.35
2023-07-03T02:54:00.366Z,5.68
2023-07-03T02:56:28.200Z,5.97
2023-07-03T02:58:55.968Z,6.85
2023-07-03T03:01:29.039Z,7.63
2023-07-03T03:03:59.937Z,7.03
2023-07-03T03:06:28.640Z,7.00
2023-07-03T03:08:56.319Z,6.65
2023-07-03T03:11:24.240Z,6.53
2023-07-03T03:13:55.036Z,6.87
2023-07-03T03:16:22.682Z,6.30
2023-07-03T03:18:51.727Z,6.82
2023-07-03T03:21:19.766Z,5.43
2023-07-03T03:23:48.332Z,8.80
2023-07-03T03:26:16.077Z,6.53
2023-07-03T03:28:43.941Z,5.05
2023-07-03T03:31:11.485Z,4.78
2023-07-03T03:33:47.461Z,8.57
2023-07-03T03:36:14.996Z,6.07
2023-07-03T03:38:42.805Z,6.53
2023-07-03T03:41:10.359Z,10.25
2023-07-03T03:43:40.838Z,8.05
2023-07-03T03:46:09.293Z,4.28
2023-07-03T03:48:38.113Z,6.93
2023-07-03T03:51:08.660Z,5.13
2023-07-03T03:53:36.978Z,8.05
2023-07-03T03:56:04.716Z,4.75
2023-07-03T03:58:35.080Z,9.15
2023-07-03T04:01:02.796Z,8.10
2023-07-03T04:03:30.518Z,5.40
2023-07-03T04:05:58.501Z,6.05
2023-07-03T04:08:26.284Z,7.82
2023-07-03T04:10:54.088Z,7.82
2023-07-03T04:13:21.577Z,12.18
2023-07-03T04:16:02.018Z,6.60
2023-07-03T04:18:30.874Z,8.85
2023-07-03T04:20:59.364Z,4.90
2023-07-03T04:23:27.291Z,8.93
2023-07-03T04:25:55.018Z,4.72
2023-07-03T04:28:24.344Z,7.93
2023-07-03T04:30:52.606Z,7.32
2023-07-03T04:33:20.270Z,6.78
2023-07-03T04:35:49.187Z,9.18
2023-07-03T04:38:25.190Z,8.43
2023-07-03T04:40:54.913Z,11.73
2023-07-03T04:43:23.112Z,7.53
2023-07-03T04:45:55.169Z,7.55
2023-07-03T04:48:23.484Z,8.85
2023-07-03T04:50:51.272Z,8.48
2023-07-03T04:53:22.674Z,10.03
2023-07-03T04:55:51.568Z,12.13
2023-07-03T04:58:20.639Z,6.45
2023-07-03T05:00:48.608Z,9.10
2023-07-03T05:03:17.195Z,7.53
2023-07-03T05:05:45.193Z,10.33
2023-07-03T05:08:12.837Z,10.20
2023-07-03T05:10:40.600Z,9.52
2023-07-03T05:13:08.089Z,10.77
2023-07-03T05:15:35.944Z,9.45
2023-07-03T05:18:03.563Z,7.63
2023-07-03T05:20:31.385Z,6.18
2023-07-03T05:22:59.519Z,7.00
2023-07-03T05:25:27.044Z,8.82
2023-07-03T05:27:54.615Z,9.93
2023-07-03T05:30:22.243Z,10.30
2023-07-03T05:32:49.862Z,10.50
2023-07-03T05:35:17.876Z,9.75
2023-07-03T05:37:45.337Z,5.53
2023-07-03T05:40:16.271Z,6.25
2023-07-03T05:42:44.467Z,11.00
2023-07-03T05:45:12.129Z,8.13
2023-07-03T05:47:39.662Z,7.05
2023-07-03T05:50:08.222Z,10.80
2023-07-03T05:52:37.426Z,10.02
2023-07-03T05:55:06.155Z,9.97
2023-07-03T05:57:33.623Z,8.40
2023-07-03T06:00:01.167Z,8.05
2023-07-03T06:02:28.746Z,6.85
2023-07-03T06:04:56.501Z,10.40
2023-07-03T06:07:24.120Z,7.90
2023-07-03T06:09:52.648Z,11.85
2023-07-03T06:12:20.186Z,6.72
2023-07-03T06:14:48.136Z,8.63
2023-07-03T06:17:15.626Z,10.45
2023-07-03T06:19:43.536Z,8.27
2023-07-03T06:22:10.850Z,5.50
2023-07-03T06:24:38.508Z,7.68
2023-07-03T06:27:07.679Z,13.35
2023-07-03T06:29:35.497Z,7.50
2023-07-03T06:32:03.080Z,8.60
2023-07-03T06:34:30.594Z,10.35
2023-07-03T06:36:58.153Z,9.75
2023-07-03T06:39:25.783Z,11.10
2023-07-03T06:41:53.519Z,10.60
2023-07-03T06:44:21.962Z,8.10
2023-07-03T06:46:51.972Z,10.68
2023-07-03T06:49:21.535Z,8.25
2023-07-03T06:51:50.003Z,10.50
2023-07-03T06:54:18.314Z,13.00
2023-07-03T06:56:45.851Z,6.77
2023-07-03T06:59:13.715Z,6.65
2023-07-03T07:01:42.081Z,9.13
2023-07-03T07:04:10.599Z,14.45
2023-07-03T07:06:40.304Z,4.80
2023-07-03T07:09:08.249Z,11.30
2023-07-03T07:11:37.034Z,8.88
2023-07-03T07:14:07.220Z,8.00
2023-07-03T07:16:38.508Z,11.93
2023-07-03T07:19:08.628Z,13.68
2023-07-03T07:21:39.336Z,5.40
2023-07-03T07:24:33.440Z,5.57
2023-07-03T07:27:01.817Z,5.70
2023-07-03T07:29:29.713Z,3.95
2023-07-03T07:32:01.338Z,4.88
2023-07-03T07:34:29.316Z,4.00
2023-07-03T07:36:56.797Z,6.38
2023-07-03T07:39:26.417Z,7.15
2023-07-03T07:41:56.745Z,3.55
2023-07-03T07:44:24.610Z,10.25
2023-07-03T07:46:52.403Z,7.33
2023-07-03T07:49:19.885Z,7.15
2023-07-03T07:51:47.465Z,8.07
2023-07-03T07:54:15.103Z,5.72
2023-07-03T07:56:42.771Z,6.57
2023-07-03T07:59:10.386Z,8.20
2023-07-03T08:01:38.468Z,4.63
2023-07-03T08:04:06.383Z,6.72
2023-07-03T08:06:34.083Z,9.45
2023-07-03T08:09:01.537Z,5.63
2023-07-03T08:11:31.885Z,9.83
2023-07-03T08:13:59.310Z,6.50
2023-07-03T08:16:27.097Z,8.45
2023-07-03T08:18:54.722Z,7.18
2023-07-03T08:21:22.379Z,7.43
2023-07-03T08:23:49.837Z,6.47
2023-07-03T08:26:20.271Z,7.68
2023-07-03T08:28:48.377Z,9.30
2023-07-03T08:31:16.179Z,6.25
2023-07-03T08:33:43.944Z,5.18
2023-07-03T08:38:42.316Z,5.30
2023-07-03T08:41:15.467Z,8.60
2023-07-03T08:43:48.069Z,4.60
2023-07-03T08:46:21.769Z,9.18
2023-07-03T08:48:52.782Z,5.20
2023-07-03T08:51:24.078Z,4.53
2023-07-03T08:53:54.828Z,7.47
2023-07-03T08:56:26.033Z,8.00
2023-07-03T08:58:56.119Z,7.35
2023-07-03T09:01:28.847Z,9.70
2023-07-03T09:04:02.510Z,5.43
2023-07-03T09:06:49.790Z,5.82
2023-07-03T09:09:38.510Z,5.30
2023-07-03T09:12:30.093Z,7.28
2023-07-03T09:15:13.679Z,4.93
2023-07-03T09:17:43.458Z,5.60
2023-07-03T09:20:14.088Z,9.07
2023-07-03T09:22:44.737Z,7.70
2023-07-03T09:25:21.182Z,3.67
2023-07-03T09:27:54.082Z,5.90
2023-07-03T09:30:21.667Z,9.35
2023-07-03T09:32:49.551Z,7.78
2023-07-03T09:35:19.590Z,7.30
2023-07-03T09:37:59.375Z,5.35
2023-07-03T09:40:49.577Z,3.30
2023-07-03T09:43:25.513Z,7.13
2023-07-03T09:46:13.740Z,8.85
2023-07-03T09:48:41.425Z,6.88
2023-07-03T09:51:30.463Z,10.05
2023-07-03T09:54:00.360Z,10.00
2023-07-03T09:56:31.515Z,6.70
2023-07-03T09:59:04.756Z,7.13
2023-07-03T10:06:58.136Z,7.37
2023-07-03T10:12:21.105Z,7.68
2023-07-03T10:14:55.862Z,7.70
2023-07-03T10:17:48.930Z,6.65
2023-07-03T10:20:29.590Z,7.20
2023-07-03T10:22:59.757Z,7.30
2023-07-03T10:25:49.776Z,7.75
2023-07-03T10:28:32.546Z,10.90
2023-07-03T10:31:05.531Z,10.20
2023-07-03T10:33:42.087Z,7.23
2023-07-03T10:36:16.578Z,6.72
2023-07-03T10:39:02.230Z,7.43
2023-07-03T10:41:47.149Z,5.30
2023-07-03T10:44:19.453Z,7.63
2023-07-03T10:47:08.508Z,9.03
2023-07-03T10:49:38.488Z,4.45
2023-07-03T10:52:09.157Z,6.47
2023-07-03T10:54:55.368Z,6.80
2023-07-03T10:57:35.435Z,8.57
2023-07-03T11:00:13.394Z,3.83
2023-07-03T11:03:06.335Z,9.40
2023-07-03T11:05:41.323Z,6.90
2023-07-03T11:08:45.116Z,5.68
2023-07-03T11:11:33.732Z,4.72
2023-07-03T11:14:14.354Z,8.90
2023-07-03T11:16:55.430Z,5.50
2023-07-03T11:24:41.636Z,5.32
2023-07-03T11:30:02.272Z,4.93
2023-07-03T11:32:34.924Z,4.70
2023-07-03T11:41:06.213Z,5.63
2023-07-03T11:43:35.390Z,5.15
2023-07-03T11:46:07.885Z,7.35
2023-07-03T11:48:47.870Z,6.47
2023-07-03T11:51:29.756Z,8.82
2023-07-03T11:53:58.892Z,5.73
2023-07-03T11:56:32.718Z,7.45
2023-07-03T11:59:34.736Z,6.20
2023-07-03T12:02:18.125Z,5.80
2023-07-03T12:04:50.182Z,6.72
2023-07-03T12:07:20.906Z,6.03
2023-07-03T12:09:49.924Z,6.10
2023-07-03T12:12:25.795Z,7.05
2023-07-03T12:15:03.132Z,4.60
2023-07-03T12:17:33.195Z,7.50
2023-07-03T12:20:21.623Z,5.63
2023-07-03T12:22:53.244Z,5.50
2023-07-03T12:25:26.653Z,5.65
2023-07-03T12:27:55.924Z,5.22
2023-07-03T12:30:31.669Z,4.78
2023-07-03T12:33:00.707Z,4.97
2023-07-03T12:35:37.197Z,6.07
2023-07-03T12:38:10.014Z,7.15
2023-07-03T12:40:45.552Z,8.68
2023-07-03T12:43:19.081Z,5.28
2023-07-03T12:45:54.860Z,8.33
2023-07-03T12:48:24.236Z,6.68
2023-07-03T12:50:57.116Z,6.75
2023-07-03T12:53:30.977Z,5.45
2023-07-03T12:56:04.322Z,7.25
2023-07-03T12:58:32.453Z,7.70
2023-07-03T13:01:03.154Z,5.55
2023-07-03T13:03:31.492Z,8.07
2023-07-03T13:05:59.211Z,13.15
2023-07-03T13:08:26.856Z,8.23
2023-07-03T13:11:03.498Z,9.17
2023-07-03T13:13:31.086Z,7.70
2023-07-03T13:15:58.945Z,6.97
2023-07-03T13:18:26.832Z,6.95
2023-07-03T13:20:58.765Z,7.75
2023-07-03T13:23:36.972Z,7.07
2023-07-03T13:26:12.540Z,5.63
2023-07-03T13:28:52.560Z,6.00
2023-07-03T13:31:22.367Z,5.85
2023-07-03T13:34:08.167Z,5.68
2023-07-03T13:36:51.269Z,7.77
2023-07-03T13:39:18.850Z,17.35
2023-07-03T13:41:48.147Z,9.32
2023-07-03T13:44:18.693Z,9.82
2023-07-03T13:46:49.207Z,9.30
2023-07-03T13:49:17.913Z,4.83
2023-07-03T13:51:47.368Z,9.27
2023-07-03T13:54:16.517Z,9.05
2023-07-03T13:56:44.930Z,5.88
2023-07-03T13:59:13.257Z,5.80
2023-07-03T14:01:42.495Z,7.53
2023-07-03T14:04:10.796Z,7.20
2023-07-03T14:06:38.461Z,3.65
2023-07-03T14:09:06.505Z,6.40
2023-07-03T14:11:34.255Z,42.35
2023-07-03T14:14:03.505Z,4.93
2023-07-03T14:16:31.533Z,6.10
2023-07-03T14:18:59.468Z,3.85
2023-07-03T14:21:27.046Z,8.68
2023-07-03T14:23:54.776Z,4.82
2023-07-03T14:26:23.827Z,8.33
2023-07-03T14:28:51.456Z,4.82
2023-07-03T14:31:19.405Z,10.20
2023-07-03T14:33:47.283Z,8.57
2023-07-03T14:36:14.908Z,3.45
2023-07-03T14:38:42.562Z,7.47
2023-07-03T14:41:10.641Z,7.38
2023-07-03T14:43:38.468Z,6.68
2023-07-03T14:46:07.884Z,7.18
2023-07-03T14:48:35.829Z,8.68
2023-07-03T14:51:03.810Z,8.27
2023-07-03T14:53:31.655Z,7.63
2023-07-03T14:56:01.947Z,8.13
2023-07-03T14:58:31.566Z,5.78
2023-07-03T15:01:03.677Z,5.22
2023-07-03T15:03:32.150Z,6.53
2023-07-03T15:06:02.009Z,6.70
2023-07-03T15:08:29.680Z,6.65
2023-07-03T15:10:57.499Z,6.43
2023-07-03T15:13:25.177Z,4.88
2023-07-03T15:15:53.374Z,4.33
2023-07-03T15:18:22.611Z,4.85
2023-07-03T15:20:50.138Z,6.75
2023-07-03T15:23:17.897Z,7.35
2023-07-03T15:25:46.462Z,9.98
2023-07-03T15:28:14.562Z,5.33
2023-07-03T15:30:42.090Z,8.80
2023-07-03T15:33:09.826Z,10.07
2023-07-03T15:35:37.604Z,8.00
2023-07-03T15:38:05.109Z,8.60
2023-07-03T15:40:32.923Z,5.83
2023-07-03T15:43:00.379Z,7.97
2023-07-03T15:45:28.142Z,6.82
2023-07-03T15:47:55.678Z,7.80
2023-07-03T15:50:23.312Z,9.07
2023-07-03T15:52:55.693Z,7.63
2023-07-03T15:55:25.803Z,8.25
2023-07-03T15:57:53.332Z,8.93
2023-07-03T16:00:21.227Z,9.45
2023-07-03T16:02:48.874Z,8.15
2023-07-03T16:05:16.955Z,8.40
2023-07-03T16:07:44.653Z,7.88
2023-07-03T16:10:12.709Z,7.75
2023-07-03T16:12:40.239Z,6.15
2023-07-03T16:15:08.350Z,8.10
2023-07-03T16:17:36.730Z,15.90
2023-07-03T16:20:10.957Z,8.05
2023-07-03T16:22:39.059Z,6.72
2023-07-03T16:25:07.567Z,7.90
2023-07-03T16:27:35.397Z,8.38
2023-07-03T16:30:03.426Z,8.00
2023-07-03T16:32:31.446Z,6.95
2023-07-03T16:34:58.987Z,5.57
2023-07-03T16:37:26.670Z,9.88
2023-07-03T16:39:54.129Z,10.68
2023-07-03T16:42:22.102Z,6.20
2023-07-03T16:44:49.560Z,7.95
2023-07-03T16:47:17.021Z,9.68
2023-07-03T16:49:44.855Z,8.02
2023-07-03T16:52:12.349Z,8.65
2023-07-03T16:54:40.122Z,10.47
2023-07-03T16:57:07.683Z,6.93
2023-07-03T16:59:35.289Z,10.20
2023-07-03T17:02:02.794Z,8.35
2023-07-03T17:04:31.653Z,8.93
2023-07-03T17:06:59.151Z,9.83
2023-07-03T17:09:26.699Z,8.15
2023-07-03T17:11:54.156Z,5.53
2023-07-03T17:14:22.189Z,6.55
2023-07-03T17:16:49.858Z,12.43
2023-07-03T17:19:17.624Z,7.17
2023-07-03T17:21:45.512Z,7.72
2023-07-03T17:24:13.582Z,12.95
2023-07-03T17:26:41.674Z,9.63
2023-07-03T17:29:09.301Z,13.82
2023-07-03T17:31:36.745Z,9.13
2023-07-03T17:34:05.117Z,10.68
2023-07-03T17:36:32.923Z,9.35
2023-07-03T17:39:00.504Z,12.40
2023-07-03T17:41:28.067Z,12.00
2023-07-03T17:43:56.410Z,13.10
2023-07-03T17:46:23.943Z,15.55
2023-07-03T17:48:51.920Z,12.43
2023-07-03T17:51:19.700Z,15.25
2023-07-03T17:53:48.497Z,18.08
2023-07-03T17:56:16.125Z,10.07
2023-07-03T17:58:44.620Z,9.23
2023-07-03T18:01:12.817Z,13.30
2023-07-03T18:03:40.744Z,13.32
2023-07-03T18:06:09.026Z,12.38
2023-07-03T18:08:36.893Z,10.00
2023-07-03T18:11:04.612Z,11.25
2023-07-03T18:13:32.205Z,14.35
2023-07-03T18:16:00.243Z,11.27
2023-07-03T18:18:28.000Z,18.13
2023-07-03T18:20:55.677Z,11.40
2023-07-03T18:23:23.316Z,13.30
2023-07-03T18:25:51.358Z,15.35
2023-07-03T18:28:19.289Z,13.65
2023-07-03T18:30:46.833Z,12.65
2023-07-03T18:33:14.322Z,12.07
2023-07-03T18:35:41.890Z,8.30
2023-07-03T18:38:09.426Z,10.07
2023-07-03T18:40:37.252Z,8.00
2023-07-03T18:43:04.674Z,23.02
2023-07-03T18:45:32.087Z,19.17
2023-07-03T18:48:00.054Z,14.88
2023-07-03T18:50:27.554Z,11.18
2023-07-03T18:52:55.259Z,9.77
2023-07-03T18:55:22.656Z,16.50
2023-07-03T18:57:50.607Z,5.70
2023-07-03T19:00:18.277Z,6.68
2023-07-03T19:02:49.763Z,8.70
2023-07-03T19:05:17.605Z,10.60
2023-07-03T19:07:45.866Z,13.70
2023-07-03T19:12:43.920Z,9.48
2023-07-03T19:15:11.479Z,18.77
2023-07-03T19:17:38.937Z,9.07
2023-07-03T19:20:11.772Z,12.82
2023-07-03T19:22:39.893Z,14.03
2023-07-03T19:25:08.873Z,19.08
2023-07-03T19:27:36.352Z,13.40
2023-07-03T19:30:04.098Z,19.10
2023-07-03T19:32:31.713Z,16.58
2023-07-03T19:34:59.323Z,17.70
2023-07-03T19:37:26.787Z,12.20
2023-07-03T19:39:54.494Z,18.10
2023-07-03T19:42:22.190Z,6.60
2023-07-03T19:44:49.830Z,14.60
2023-07-03T19:47:17.883Z,16.63
2023-07-03T19:49:45.583Z,18.52
2023-07-03T19:52:13.236Z,14.60
2023-07-03T19:54:40.854Z,17.85
2023-07-03T19:57:08.356Z,13.50
2023-07-03T19:59:36.860Z,15.77
2023-07-03T20:02:07.576Z,8.75
2023-07-03T20:04:37.232Z,10.73
2023-07-03T20:07:05.201Z,9.77
2023-07-03T20:09:32.889Z,13.77
2023-07-03T20:12:00.286Z,13.00
2023-07-03T20:14:27.922Z,11.35
2023-07-03T20:16:55.481Z,7.80
2023-07-03T20:19:22.830Z,10.05
2023-07-03T20:21:51.534Z,16.52
2023-07-03T20:24:19.301Z,18.23
2023-07-03T20:26:48.800Z,11.55
2023-07-03T20:29:16.250Z,14.95
2023-07-03T20:31:45.503Z,18.88
2023-07-03T20:34:14.238Z,11.68
2023-07-03T20:36:43.734Z,9.43
2023-07-03T20:39:11.260Z,5.35
2023-07-03T20:41:39.189Z,8.77
2023-07-03T20:44:07.876Z,12.95
2023-07-03T20:46:37.054Z,5.82
2023-07-03T20:49:04.945Z,9.53
2023-07-03T20:51:34.983Z,7.35
2023-07-03T20:54:12.356Z,7.90
2023-07-03T20:56:40.813Z,15.52
2023-07-03T20:59:12.955Z,5.10
2023-07-03T21:01:44.684Z,10.83
2023-07-03T21:04:12.023Z,15.88
2023-07-03T21:06:41.982Z,11.73
2023-07-03T21:09:09.913Z,19.60
2023-07-03T21:11:40.459Z,16.20
2023-07-03T21:14:08.122Z,21.17
2023-07-03T21:16:36.577Z,16.88
2023-07-03T21:19:07.155Z,12.95
2023-07-03T21:21:35.345Z,17.27
2023-07-03T21:24:05.892Z,12.98
2023-07-03T21:26:34.040Z,11.83
2023-07-03T21:29:01.769Z,10.07
2023-07-03T21:31:32.407Z,15.07
2023-07-03T21:34:00.310Z,13.13
2023-07-03T21:36:29.922Z,15.95
2023-07-03T21:38:59.533Z,15.83
2023-07-03T21:41:30.556Z,17.58
2023-07-03T21:44:02.152Z,11.20
2023-07-03T21:46:32.627Z,12.98
2023-07-03T21:49:00.350Z,8.30
2023-07-03T21:51:30.557Z,10.47
2023-07-03T21:53:59.233Z,16.23
2023-07-03T21:56:29.289Z,12.02
2023-07-03T21:58:58.981Z,16.05
2023-07-03T22:01:38.805Z,10.90
2023-07-03T22:04:08.132Z,10.43
2023-07-03T22:06:35.955Z,15.95
2023-07-03T22:09:04.247Z,9.70
2023-07-03T22:11:31.796Z,10.50
2023-07-03T22:14:00.355Z,19.13
2023-07-03T22:16:28.049Z,12.10
2023-07-03T22:18:55.855Z,9.65
2023-07-03T22:21:23.628Z,8.40
2023-07-03T22:23:52.288Z,14.00
2023-07-03T22:26:20.696Z,16.20
2023-07-03T22:28:48.628Z,14.30
2023-07-03T22:31:16.555Z,11.00
2023-07-03T22:33:44.549Z,11.07
2023-07-03T22:36:13.330Z,13.50
2023-07-03T22:38:40.853Z,10.98
2023-07-03T22:41:11.607Z,10.50
2023-07-03T22:43:39.459Z,11.45
2023-07-03T22:46:09.297Z,8.18
2023-07-03T22:48:40.693Z,10.23
2023-07-03T22:51:11.267Z,15.32
2023-07-03T22:53:39.571Z,12.60
2023-07-03T22:56:08.043Z,9.48
2023-07-03T22:58:35.886Z,9.05
2023-07-03T23:01:11.504Z,10.77
2023-07-03T23:03:40.353Z,15.05
2023-07-03T23:06:08.913Z,10.43
2023-07-03T23:08:37.743Z,9.88
2023-07-03T23:11:05.924Z,9.95
2023-07-03T23:13:33.837Z,8.43
2023-07-03T23:16:06.174Z,8.15
2023-07-03T23:18:36.136Z,10.73
2023-07-03T23:21:10.089Z,10.60
2023-07-03T23:23:37.971Z,8.10
2023-07-03T23:26:07.686Z,7.18
2023-07-03T23:28:36.598Z,10.38
2023-07-03T23:31:15.777Z,13.07
2023-07-03T23:33:49.164Z,7.35
2023-07-03T23:36:20.993Z,10.02
2023-07-03T23:38:48.556Z,8.90
2023-07-03T23:41:17.066Z,7.55
2023-07-03T23:43:45.001Z,11.07
2023-07-03T23:46:12.955Z,6.10
2023-07-03T23:48:41.460Z,8.93
2023-07-03T23:51:11.199Z,7.13
2023-07-03T23:53:41.506Z,7.57
2023-07-03T23:56:16.687Z,6.23
2023-07-03T23:58:45.766Z,6.80
